Monday, December 18, 2017, 11:29 AM EST
Back to Local

KHYA, Hyannis Barnstable Boardmn

Location: West Yarmouth, MA, United States Lat: 41.667
Local Time: 11:29 AM EST (16:29 GMT) Lon: -70.267
Time Zone: US/Eastern Elev: 52 ft

Show me the last for .
Show Coded

Time T Td Feel RH Dir Speed Gust Alt SLP Vis Weather Sky Remarks
2017-12-18 10:56 35 23 31 61 130° 5 - 30.10 30.10 10 OVC060 None
2017-12-18 10:03 33 22 30 63 160° 3 - 30.14 - 10 FEW030 OVC060 None
2017-12-18 09:56 33 22 - 63 - Calm - 30.15 30.15 10 BKN028 BKN047 OVC060 None
2017-12-18 08:56 30 19 - 63 - Calm - 30.16 30.17 10 OVC028 None
2017-12-18 08:37 30 19 - 63 - Calm - 30.17 - 10 BKN027 OVC050 None
2017-12-18 08:26 29 20 - 68 - Calm - 30.17 - 10 SCT025 SCT031 OVC055 None
2017-12-18 07:56 28 20 - 71 - Calm - 30.18 30.18 10 OVC025 None
2017-12-18 07:24 27 19 - 71 - Calm - 30.18 - 10 BKN026 OVC050 None
2017-12-18 06:56 27 18 - 68 - Calm - 30.18 30.18 10 FEW027 OVC050 6-hr Min Temp (7am): 21.0°F
6-hr Max Temp (7am): 27.0°F
2017-12-18 05:56 26 18 - 70 - Calm - 30.17 30.18 10 SCT070 BKN090 BKN110 None
2017-12-18 04:56 27 16 - 62 - Calm - 30.18 30.18 10 OVC065 None
2017-12-18 03:56 24 16 - 70 - Calm - 30.20 30.21 10 FEW065 OVC095 None
2017-12-18 02:56 23 16 - 74 - Calm - 30.22 30.22 10 BKN080 None
2017-12-18 01:56 22 14 - 71 - Calm - 30.22 30.23 10 CLR None
2017-12-18 00:56 21 12 - 67 - Calm - 30.21 30.21 10 CLR 6-hr Min Temp (1am): 19.0°F
6-hr Max Temp (1am): 27.0°F
2017-12-17 23:56 20 11 - 67 - Calm - 30.22 30.23 10 CLR 24-hr Min Temp (12am): 19.0°F
24-hr Max Temp (12am): 30.0°F
2017-12-17 22:56 26 9 22 47 270° 3 - 30.23 30.23 10 CLR None
2017-12-17 21:56 27 8 23 44 290° 3 - 30.25 30.25 10 CLR None
2017-12-17 20:56 26 7 21 43 280° 5 - 30.27 30.27 10 CLR None
2017-12-17 19:56 25 7 21 45 280° 3 - 30.25 30.26 10 CLR None
2017-12-17 18:56 23 10 18 56 250° 3 - 30.26 30.26 10 CLR 6-hr Min Temp (7pm): 19.9°F
6-hr Max Temp (7pm): 30.0°F
2017-12-17 17:56 22 9 - 56 - Calm - 30.24 30.24 10 CLR None
2017-12-17 16:56 23 6 17 47 260° 5 - 30.23 30.24 10 CLR None
2017-12-17 15:56 28 3 24 33 280° 3 - 30.23 30.23 10 CLR None
2017-12-17 14:56 29 5 24 35 310° 5 - 30.20 30.20 10 CLR None
2017-12-17 13:56 29 4 24 33 330° 5 - 30.20 30.21 10 CLR None
2017-12-17 12:56 29 7 20 38 330° 10 - 30.21 30.21 10 CLR 6-hr Min Temp (1pm): 19.9°F
6-hr Max Temp (1pm): 30.0°F
2017-12-17 11:56 29 9 21 42 330° 8 - 30.23 30.23 10 CLR None

Support USWX by starting your Amazon purchase here.